Portada
METAR-TAF:

METAR-TAF

Aeroports :

Nagasaki, Japó

latitud: 32-55N, longitud: 129-55E, altitud: 2 m

Observació

L'informe es va fer fa 1 hora i 24 minuts, a les 12:00 UTC
Vent 5 kt del Sud-Est
Temperatura 12°C
Humitat 88%
Pressió 1017 hPa
Visibilitat 10 km o més
Escasses núvols a una alçada de 600 ft
Cel ennuvolat a una alçada de 5000 ft

METAR: RJFU 301200Z 13005KT 9999 FEW006 BKN050 12/10 Q1017

Hora: 22:24 (13:24 UTC)

Pronòstic

L'informe es va fer fa 2 hores i 13 minuts, a les 11:11 UTC
Pronòstic vàlid del 30 a les 12 UTC al 31 a les 18 UTC
Vent 3 kt del Sud-Est
Visibilitat 10 km o més
Escasses núvols a una alçada de 2000 ft
Núvols disperses a una alçada de 4500 ft
Evolucionant progressivament
l' 31 a les 00 UTC al 31 a les 03 UTC
Vent 6 kt del Nord-Oest

TAF: RJFU 301111Z 3012/3118 14003KT 9999 FEW020 SCT045 BECMG 3100/3103 31006KT

Observacions i pronòstics meteorològics de més de 4000 aeroports (METAR i TAF).

Les estacions disponibles són els punts grocs i vermells al mapa.

Posi el ratolí al punt desitjat per veure el nom de l'estació.

Feu clic per veure les observacions i els pronòstics meteorològics.

Per canviar el mapa: feu clic els botons verds amb una creu de color negre per apropar; al botó verd amb un guió per allunyar la imatge; o en les fletxes verdes per a mapes adjacents.


METAR-TAF: